createdAt,value
2017-12-22T00:00:08.507Z,91.23
2017-12-22T00:01:18.609Z,91.42
2017-12-22T00:02:28.479Z,91.52
2017-12-22T00:03:38.749Z,91.04
2017-12-22T00:04:48.973Z,91.8
2017-12-22T00:06:00.068Z,91.52
2017-12-22T00:07:09.949Z,91.89
2017-12-22T00:08:19.798Z,91.52
2017-12-22T00:09:29.976Z,91.52
2017-12-22T00:10:40.206Z,92.03
2017-12-22T00:11:50.470Z,91.89
2017-12-22T00:13:00.682Z,91.8
2017-12-22T00:14:10.529Z,91.89
2017-12-22T00:15:20.660Z,91.37
2017-12-22T00:16:30.776Z,91.33
2017-12-22T00:17:40.390Z,91.99
2017-12-22T00:18:50.326Z,91.8
2017-12-22T00:20:01.472Z,91.89
2017-12-22T00:21:11.596Z,92.08
2017-12-22T00:22:21.517Z,92.32
2017-12-22T00:23:31.646Z,92.22
2017-12-22T00:24:41.577Z,91.8
2017-12-22T00:25:51.684Z,92.03
2017-12-22T00:27:01.535Z,91.99
2017-12-22T00:28:11.652Z,91.8
2017-12-22T00:29:21.508Z,91.99
2017-12-22T00:30:31.612Z,92.46
2017-12-22T00:31:41.734Z,92.37
2017-12-22T00:32:51.500Z,92.75
2017-12-22T00:34:01.627Z,92.56
2017-12-22T00:35:11.507Z,92.56
2017-12-22T00:36:21.692Z,93.04
2017-12-22T00:37:31.800Z,92.85
2017-12-22T00:38:41.562Z,92.66
2017-12-22T00:39:51.414Z,92.75
2017-12-22T00:41:01.535Z,92.8
2017-12-22T00:42:12.683Z,92.37
2017-12-22T00:43:22.623Z,93.23
2017-12-22T00:44:32.786Z,92.99
2017-12-22T00:45:42.543Z,92.99
2017-12-22T00:46:52.668Z,93.08
2017-12-22T00:48:02.823Z,92.99
2017-12-22T00:49:12.993Z,93.13
2017-12-22T00:50:23.260Z,92.85
2017-12-22T00:51:33.097Z,92.85
2017-12-22T00:52:43.256Z,93.41
2017-12-22T00:53:53.513Z,93.6
2017-12-22T00:55:03.761Z,93.23
2017-12-22T00:56:13.938Z,93.32
2017-12-22T00:57:23.785Z,93.55
2017-12-22T00:58:33.906Z,93.32
2017-12-22T00:59:44.017Z,93.51
2017-12-22T01:00:54.109Z,93.18
2017-12-22T01:02:04.112Z,93.23
2017-12-22T01:03:14.315Z,93.32
2017-12-22T01:04:24.173Z,93.46
2017-12-22T01:05:33.653Z,93.08
2017-12-22T01:06:43.607Z,92.89
2017-12-22T01:07:53.753Z,93.32
2017-12-22T01:09:03.868Z,93.51
2017-12-22T01:10:13.981Z,93.6
2017-12-22T01:11:23.925Z,94.18
2017-12-22T01:12:34.206Z,93.99
2017-12-22T01:13:44.392Z,94.13
2017-12-22T01:14:54.151Z,93.99
2017-12-22T01:16:04.262Z,93.89
2017-12-22T01:17:14.564Z,93.89
2017-12-22T01:18:24.681Z,94.22
2017-12-22T01:19:34.834Z,93.75
2017-12-22T01:20:44.954Z,93.99
2017-12-22T01:21:55.062Z,93.84
2017-12-22T01:23:05.198Z,93.75
2017-12-22T01:24:15.054Z,93.84
2017-12-22T01:25:25.183Z,93.75
2017-12-22T01:26:35.341Z,94.03
2017-12-22T01:27:45.466Z,93.84
2017-12-22T01:28:56.609Z,94.32
2017-12-22T01:30:06.710Z,94.32
2017-12-22T01:31:16.573Z,94.32
2017-12-22T01:32:27.487Z,93.94
2017-12-22T01:33:37.346Z,94.13
2017-12-22T01:34:47.194Z,94.03
2017-12-22T01:35:57.050Z,94.13
2017-12-22T01:37:07.292Z,93.75
2017-12-22T01:38:17.570Z,94.51
2017-12-22T01:39:27.739Z,94.32
2017-12-22T01:40:37.868Z,94.89
2017-12-22T01:41:47.827Z,94.79
2017-12-22T01:42:58.029Z,94.79
2017-12-22T01:44:07.884Z,94.79
2017-12-22T01:45:17.469Z,94.79
2017-12-22T01:46:27.623Z,94.98
2017-12-22T01:47:37.924Z,94.7
2017-12-22T01:48:48.195Z,94.6
2017-12-22T01:49:58.043Z,94.6
2017-12-22T01:51:07.973Z,94.6
2017-12-22T01:52:18.075Z,94.51
2017-12-22T01:53:28.195Z,94.6
2017-12-22T01:54:38.301Z,94.42
2017-12-22T01:55:48.105Z,94.32
2017-12-22T01:56:57.980Z,94.03
2017-12-22T01:58:08.100Z,94.03
2017-12-22T01:59:17.955Z,94.13
2017-12-22T02:00:28.075Z,94.32
2017-12-22T02:01:37.834Z,94.51
2017-12-22T02:02:47.944Z,94.51
2017-12-22T02:03:58.052Z,94.6
2017-12-22T02:05:08.317Z,94.6
2017-12-22T02:06:19.194Z,94.51
2017-12-22T02:07:28.928Z,94.32
2017-12-22T02:08:39.042Z,94.42
2017-12-22T02:09:48.906Z,94.32
2017-12-22T02:10:58.752Z,94.42
2017-12-22T02:12:08.854Z,94.32
2017-12-22T02:13:18.771Z,94.51
2017-12-22T02:14:28.965Z,94.51
2017-12-22T02:15:38.821Z,94.6
2017-12-22T02:16:48.976Z,94.7
2017-12-22T02:17:58.846Z,94.6
2017-12-22T02:19:09.940Z,94.98
2017-12-22T02:20:19.572Z,94.79
2017-12-22T02:21:29.494Z,94.6
2017-12-22T02:22:39.364Z,94.6
2017-12-22T02:23:49.528Z,94.7
2017-12-22T02:24:59.690Z,94.79
2017-12-22T02:26:09.810Z,94.89
2017-12-22T02:27:19.653Z,94.89
2017-12-22T02:28:29.568Z,94.6
2017-12-22T02:29:39.456Z,94.7
2017-12-22T02:30:49.303Z,94.79
2017-12-22T02:31:59.432Z,94.89
2017-12-22T02:33:09.594Z,94.79
2017-12-22T02:34:19.544Z,94.6
2017-12-22T02:35:29.691Z,94.98
2017-12-22T02:36:39.546Z,94.6
2017-12-22T02:37:49.664Z,94.89
2017-12-22T02:38:59.500Z,94.79
2017-12-22T02:40:10.580Z,94.6
2017-12-22T02:41:20.832Z,94.79
2017-12-22T02:42:30.985Z,94.79
2017-12-22T02:43:41.140Z,94.6
2017-12-22T02:44:51.405Z,94.7
2017-12-22T02:46:01.766Z,94.6
2017-12-22T02:47:11.521Z,94.42
2017-12-22T02:48:21.651Z,94.42
2017-12-22T02:49:31.900Z,94.7
2017-12-22T02:50:42.106Z,94.6
2017-12-22T02:51:52.378Z,94.7
2017-12-22T02:53:02.564Z,94.6
2017-12-22T02:54:12.688Z,94.7
2017-12-22T02:55:22.636Z,95.08
2017-12-22T02:56:32.749Z,94.79
2017-12-22T02:57:42.956Z,94.7
2017-12-22T02:58:53.080Z,94.89
2017-12-22T03:00:02.930Z,94.51
2017-12-22T03:01:13.101Z,94.7
2017-12-22T03:02:23.243Z,94.74
2017-12-22T03:03:33.409Z,94.7
2017-12-22T03:04:43.663Z,94.7
2017-12-22T03:05:53.269Z,94.89
2017-12-22T03:07:03.375Z,94.7
2017-12-22T03:08:13.224Z,94.89
2017-12-22T03:09:23.013Z,94.98
2017-12-22T03:10:33.105Z,95.08
2017-12-22T03:11:42.889Z,94.6
2017-12-22T03:12:53.000Z,94.98
2017-12-22T03:14:03.111Z,94.98
2017-12-22T03:15:13.361Z,94.7
2017-12-22T03:16:23.501Z,94.98
2017-12-22T03:17:33.647Z,94.89
2017-12-22T03:18:44.825Z,95.03
2017-12-22T03:19:54.940Z,94.84
2017-12-22T03:21:04.716Z,94.93
2017-12-22T03:22:14.819Z,94.93
2017-12-22T03:23:24.324Z,94.65
2017-12-22T03:24:34.550Z,94.79
2017-12-22T03:25:44.835Z,94.56
2017-12-22T03:26:54.436Z,94.37
2017-12-22T03:28:04.038Z,94.84
2017-12-22T03:29:14.202Z,94.56
2017-12-22T03:30:24.320Z,94.74
2017-12-22T03:31:34.429Z,94.65
2017-12-22T03:32:44.385Z,94.79
2017-12-22T03:33:54.191Z,94.56
2017-12-22T03:35:04.319Z,94.65
2017-12-22T03:36:14.455Z,94.46
2017-12-22T03:37:24.569Z,94.56
2017-12-22T03:38:34.687Z,94.74
2017-12-22T03:39:44.631Z,94.56
2017-12-22T03:40:54.229Z,94.46
2017-12-22T03:42:04.065Z,94.74
2017-12-22T03:43:14.264Z,94.74
2017-12-22T03:44:24.414Z,94.56
2017-12-22T03:45:34.746Z,94.65
2017-12-22T03:46:44.888Z,94.46
2017-12-22T03:47:55.070Z,94.46
2017-12-22T03:49:04.926Z,94.46
2017-12-22T03:50:15.050Z,94.56
2017-12-22T03:51:25.243Z,94.65
2017-12-22T03:52:35.451Z,94.93
2017-12-22T03:53:45.552Z,94.74
2017-12-22T03:54:55.682Z,94.74
2017-12-22T03:56:05.777Z,94.74
2017-12-22T03:57:15.632Z,94.56
2017-12-22T03:58:25.782Z,94.37
2017-12-22T03:59:35.260Z,93.99
2017-12-22T04:00:45.372Z,94.08
2017-12-22T04:01:56.446Z,94.27
2017-12-22T04:03:06.291Z,93.99
2017-12-22T04:04:16.400Z,93.99
2017-12-22T04:05:26.597Z,93.89
2017-12-22T04:06:36.365Z,94.27
2017-12-22T04:07:46.236Z,94.18
2017-12-22T04:08:56.224Z,94.46
2017-12-22T04:10:06.469Z,94.27
2017-12-22T04:11:16.709Z,94.27
2017-12-22T04:12:26.888Z,94.37
2017-12-22T04:13:37.993Z,93.99
2017-12-22T04:14:48.103Z,93.6
2017-12-22T04:15:58.236Z,93.7
2017-12-22T04:17:08.358Z,94.18
2017-12-22T04:18:18.476Z,93.94
2017-12-22T04:19:28.351Z,93.51
2017-12-22T04:20:38.508Z,94.03
2017-12-22T04:21:48.386Z,94.03
2017-12-22T04:22:58.236Z,93.99
2017-12-22T04:24:08.076Z,94.08
2017-12-22T04:25:17.946Z,94.03
2017-12-22T04:26:28.119Z,94.03
2017-12-22T04:27:37.959Z,93.84
2017-12-22T04:28:47.813Z,93.55
2017-12-22T04:29:57.916Z,93.27
2017-12-22T04:31:08.037Z,93.37
2017-12-22T04:32:17.619Z,93.18
2017-12-22T04:33:27.760Z,93.27
2017-12-22T04:34:37.868Z,93.18
2017-12-22T04:35:47.757Z,93.18
2017-12-22T04:36:57.905Z,93.27
2017-12-22T04:38:08.019Z,93.18
2017-12-22T04:39:18.138Z,93.37
2017-12-22T04:40:28.246Z,93.37
2017-12-22T04:41:38.376Z,93.18
2017-12-22T04:42:48.474Z,92.99
2017-12-22T04:43:59.570Z,93.27
2017-12-22T04:45:09.680Z,92.89
2017-12-22T04:46:19.803Z,92.89
2017-12-22T04:47:29.881Z,93.18
2017-12-22T04:48:39.837Z,92.8
2017-12-22T04:49:49.551Z,93.27
2017-12-22T04:50:59.689Z,92.89
2017-12-22T04:52:09.544Z,93.27
2017-12-22T04:53:19.507Z,93.27
2017-12-22T04:54:29.653Z,92.89
2017-12-22T04:55:39.568Z,93.27
2017-12-22T04:56:49.667Z,93.08
2017-12-22T04:57:59.531Z,92.89
2017-12-22T04:59:09.116Z,92.7
2017-12-22T05:00:19.210Z,92.7
2017-12-22T05:01:29.066Z,92.8
2017-12-22T05:02:39.268Z,92.8
2017-12-22T05:03:49.369Z,92.89
2017-12-22T05:05:00.232Z,93.08
2017-12-22T05:06:10.096Z,92.8
2017-12-22T05:07:20.186Z,92.99
2017-12-22T05:08:30.025Z,92.8
2017-12-22T05:09:39.927Z,93.08
2017-12-22T05:10:51.153Z,93.18
2017-12-22T05:12:01.045Z,93.08
2017-12-22T05:13:11.155Z,92.8
2017-12-22T05:14:21.322Z,92.99
2017-12-22T05:15:31.626Z,93.55
2017-12-22T05:16:41.738Z,93.08
2017-12-22T05:17:51.326Z,92.99
2017-12-22T05:19:01.413Z,93.08
2017-12-22T05:20:11.565Z,93.08
2017-12-22T05:21:21.419Z,92.89
2017-12-22T05:22:31.594Z,93.37
2017-12-22T05:23:41.439Z,93.37
2017-12-22T05:24:51.555Z,93.27
2017-12-22T05:26:01.691Z,93.55
2017-12-22T05:27:11.810Z,93.55
2017-12-22T05:28:21.933Z,93.37
2017-12-22T05:29:32.184Z,93.46
2017-12-22T05:30:42.294Z,93.55
2017-12-22T05:31:52.438Z,93.37
2017-12-22T05:33:02.568Z,93.27
2017-12-22T05:34:12.712Z,93.08
2017-12-22T05:35:22.995Z,93.27
2017-12-22T05:36:33.132Z,93.46
2017-12-22T05:37:43.301Z,92.99
2017-12-22T05:38:53.151Z,93.46
2017-12-22T05:40:03.276Z,93.55
2017-12-22T05:41:13.430Z,93.37
2017-12-22T05:42:23.258Z,93.46
2017-12-22T05:43:33.110Z,93.46
2017-12-22T05:44:43.271Z,93.37
2017-12-22T05:45:53.120Z,93.08
2017-12-22T05:47:03.222Z,92.94
2017-12-22T05:48:12.969Z,93.27
2017-12-22T05:49:23.160Z,93.27
2017-12-22T05:50:33.121Z,93.27
2017-12-22T05:51:43.246Z,93.18
2017-12-22T05:52:53.420Z,93.18
2017-12-22T05:54:03.523Z,93.18
2017-12-22T05:55:13.673Z,93.27
2017-12-22T05:56:23.900Z,93.27
2017-12-22T05:57:33.813Z,93.08
2017-12-22T05:58:43.662Z,93.37
2017-12-22T05:59:53.545Z,93.55
2017-12-22T06:01:03.379Z,93.55
2017-12-22T06:02:13.599Z,92.99
2017-12-22T06:03:23.227Z,92.8
2017-12-22T06:04:33.097Z,93.55
2017-12-22T06:05:43.037Z,93.37
2017-12-22T06:06:53.147Z,92.7
2017-12-22T06:08:03.274Z,92.75
2017-12-22T06:09:13.400Z,93.04
2017-12-22T06:10:23.585Z,92.85
2017-12-22T06:11:33.555Z,93.04
2017-12-22T06:12:43.672Z,93.65
2017-12-22T06:13:53.894Z,93.65
2017-12-22T06:15:04.020Z,93.51
2017-12-22T06:16:14.214Z,93.55
2017-12-22T06:17:24.325Z,93.51
2017-12-22T06:18:34.422Z,93.13
2017-12-22T06:19:44.600Z,92.94
2017-12-22T06:20:54.452Z,93.23
2017-12-22T06:22:04.388Z,93.41
2017-12-22T06:23:14.340Z,93.32
2017-12-22T06:24:24.513Z,93.23
2017-12-22T06:25:34.660Z,93.32
2017-12-22T06:26:44.868Z,93.51
2017-12-22T06:27:54.995Z,93.41
2017-12-22T06:29:05.109Z,93.41
2017-12-22T06:30:15.202Z,93.51
2017-12-22T06:31:24.956Z,93.23
2017-12-22T06:32:34.508Z,93.41
2017-12-22T06:33:44.351Z,93.13
2017-12-22T06:34:54.480Z,92.94
2017-12-22T06:36:04.727Z,92.94
2017-12-22T06:37:14.615Z,92.66
2017-12-22T06:38:24.475Z,92.85
2017-12-22T06:39:34.578Z,92.85
2017-12-22T06:40:44.728Z,93.04
2017-12-22T06:41:54.860Z,92.85
2017-12-22T06:43:04.696Z,92.94
2017-12-22T06:44:14.812Z,92.85
2017-12-22T06:45:25.005Z,92.99
2017-12-22T06:46:35.143Z,92.75
2017-12-22T06:47:45.298Z,93.18
2017-12-22T06:48:55.400Z,93.27
2017-12-22T06:50:05.370Z,93.13
2017-12-22T06:51:15.499Z,93.08
2017-12-22T06:52:25.657Z,92.8
2017-12-22T06:53:35.761Z,92.89
2017-12-22T06:54:45.771Z,92.89
2017-12-22T06:55:55.372Z,92.99
2017-12-22T06:57:05.481Z,92.8
2017-12-22T06:58:15.574Z,92.41
2017-12-22T06:59:25.682Z,92.32
2017-12-22T07:00:35.947Z,92.41
2017-12-22T07:01:45.687Z,92.41
2017-12-22T07:02:55.538Z,92.56
2017-12-22T07:04:05.421Z,93.23
2017-12-22T07:05:15.561Z,93.13
2017-12-22T07:06:25.758Z,92.85
2017-12-22T07:07:35.660Z,92.94
2017-12-22T07:08:45.540Z,93.13
2017-12-22T07:09:55.702Z,93.23
2017-12-22T07:11:05.520Z,93.23
2017-12-22T07:12:15.622Z,92.66
2017-12-22T07:13:25.835Z,92.41
2017-12-22T07:14:35.674Z,92.46
2017-12-22T07:15:45.961Z,92.27
2017-12-22T07:16:56.108Z,92.27
2017-12-22T07:18:06.232Z,92.37
2017-12-22T07:19:16.333Z,92.66
2017-12-22T07:20:27.053Z,92.18
2017-12-22T07:21:37.151Z,92.08
2017-12-22T07:22:47.012Z,92.46
2017-12-22T07:23:57.117Z,92.37
2017-12-22T07:25:07.290Z,92.46
2017-12-22T07:26:17.400Z,92.37
2017-12-22T07:27:27.553Z,92.46
2017-12-22T07:28:37.505Z,92.75
2017-12-22T07:29:47.609Z,91.99
2017-12-22T07:30:57.355Z,92.18
2017-12-22T07:32:07.518Z,92.56
2017-12-22T07:33:17.642Z,92.56
2017-12-22T07:34:27.549Z,92.27
2017-12-22T07:35:37.722Z,91.71
2017-12-22T07:36:47.939Z,91.71
2017-12-22T07:37:58.143Z,91.8
2017-12-22T07:39:08.300Z,91.8
2017-12-22T07:40:18.410Z,91.89
2017-12-22T07:41:28.647Z,92.27
2017-12-22T07:42:38.260Z,92.08
2017-12-22T07:43:48.368Z,91.89
2017-12-22T07:44:58.484Z,91.99
2017-12-22T07:46:08.154Z,91.42
2017-12-22T07:47:18.313Z,91.33
2017-12-22T07:48:28.085Z,91.8
2017-12-22T07:49:37.948Z,91.8
2017-12-22T07:50:48.209Z,91.42
2017-12-22T07:51:58.330Z,91.52
2017-12-22T07:53:08.186Z,91.23
2017-12-22T07:54:18.322Z,91.33
2017-12-22T07:55:28.502Z,91.33
2017-12-22T07:56:38.488Z,91.33
2017-12-22T07:57:48.638Z,90.89
2017-12-22T07:58:58.508Z,91.04
2017-12-22T08:00:08.608Z,90.94
2017-12-22T08:01:19.012Z,90.19
2017-12-22T08:02:28.888Z,90.19
2017-12-22T08:03:39.027Z,90.28
2017-12-22T08:04:49.381Z,90.47
2017-12-22T08:05:59.524Z,90.28
2017-12-22T08:07:09.753Z,90.28
2017-12-22T08:08:20.013Z,90.66
2017-12-22T08:09:29.762Z,90.66
2017-12-22T08:10:39.672Z,90.28
2017-12-22T08:11:49.803Z,90.56
2017-12-22T08:12:59.653Z,90.66
2017-12-22T08:14:09.793Z,90
2017-12-22T08:15:19.393Z,90.85
2017-12-22T08:16:29.590Z,90.56
2017-12-22T08:17:39.878Z,90.66
2017-12-22T08:18:49.724Z,90.75
2017-12-22T08:20:00.098Z,90.19
2017-12-22T08:21:10.232Z,90
2017-12-22T08:22:20.107Z,89.9
2017-12-22T08:23:30.281Z,90.09
2017-12-22T08:24:40.387Z,89.61
2017-12-22T08:25:50.525Z,89.61
2017-12-22T08:27:01.612Z,89.75
2017-12-22T08:28:11.808Z,89.56
2017-12-22T08:29:21.683Z,89.66
2017-12-22T08:30:31.807Z,89.66
2017-12-22T08:31:42.000Z,90.14
2017-12-22T08:32:52.854Z,89.47
2017-12-22T08:34:02.978Z,89.75
2017-12-22T08:35:13.144Z,89.37
2017-12-22T08:36:22.758Z,89.66
2017-12-22T08:37:32.857Z,89.85
2017-12-22T08:38:43.947Z,89.75
2017-12-22T08:39:53.745Z,89.75
2017-12-22T08:41:04.855Z,89.75
2017-12-22T08:42:15.039Z,89.85
2017-12-22T08:43:24.875Z,89.75
2017-12-22T08:44:35.005Z,89.94
2017-12-22T08:45:45.155Z,89.85
2017-12-22T08:46:55.273Z,89.56
2017-12-22T08:48:05.420Z,89.85
2017-12-22T08:49:15.560Z,90.04
2017-12-22T08:50:25.619Z,89.85
2017-12-22T08:51:35.799Z,89.66
2017-12-22T08:52:45.705Z,90.14
2017-12-22T08:53:55.861Z,90.04
2017-12-22T08:55:06.199Z,89.75
2017-12-22T08:56:16.323Z,90.23
2017-12-22T08:57:26.184Z,89.56
2017-12-22T08:58:35.960Z,90.04
2017-12-22T08:59:46.072Z,89.56
2017-12-22T09:00:56.265Z,89.56
2017-12-22T09:02:06.367Z,89.85
2017-12-22T09:03:16.216Z,89.66
2017-12-22T09:04:26.337Z,89.85
2017-12-22T09:05:36.620Z,89.75
2017-12-22T09:06:46.756Z,89.28
2017-12-22T09:07:56.991Z,89.37
2017-12-22T09:09:06.856Z,89.28
2017-12-22T09:10:16.968Z,89.37
2017-12-22T09:11:26.465Z,89.37
2017-12-22T09:12:36.600Z,89
2017-12-22T09:13:46.548Z,89.18
2017-12-22T09:14:56.443Z,89
2017-12-22T09:16:06.354Z,89
2017-12-22T09:17:15.937Z,88.8
2017-12-22T09:18:26.157Z,89.09
2017-12-22T09:19:36.342Z,89
2017-12-22T09:20:46.451Z,89
2017-12-22T09:21:56.606Z,88.8
2017-12-22T09:23:06.716Z,89
2017-12-22T09:24:16.851Z,89
2017-12-22T09:25:26.785Z,89.09
2017-12-22T09:26:36.924Z,89.09
2017-12-22T09:27:46.727Z,88.52
2017-12-22T09:28:56.861Z,88.71
2017-12-22T09:30:06.991Z,88.61
2017-12-22T09:31:16.950Z,88.8
2017-12-22T09:32:27.095Z,88.8
2017-12-22T09:33:37.208Z,88.8
2017-12-22T09:34:47.330Z,88.8
2017-12-22T09:35:57.224Z,88.8
2017-12-22T09:37:07.121Z,88.71
2017-12-22T09:38:17.263Z,88.23
2017-12-22T09:39:27.389Z,88.33
2017-12-22T09:40:37.510Z,88.23
2017-12-22T09:41:47.703Z,88.13
2017-12-22T09:42:57.820Z,87.95
2017-12-22T09:44:07.980Z,88.13
2017-12-22T09:45:18.113Z,88.71
2017-12-22T09:46:28.459Z,88.8
2017-12-22T09:47:38.726Z,88.61
2017-12-22T09:48:48.968Z,88.52
2017-12-22T09:49:59.202Z,88.52
2017-12-22T09:51:09.420Z,88.33
2017-12-22T09:52:19.225Z,88.8
2017-12-22T09:53:29.367Z,88.8
2017-12-22T09:54:39.257Z,89
2017-12-22T09:55:49.372Z,89
2017-12-22T09:56:59.513Z,88.71
2017-12-22T09:58:09.720Z,88.71
2017-12-22T09:59:19.826Z,88.61
2017-12-22T10:00:29.956Z,88.71
2017-12-22T10:01:39.456Z,88.8
2017-12-22T10:02:49.581Z,88.71
2017-12-22T10:03:59.522Z,88.9
2017-12-22T10:05:09.637Z,88.71
2017-12-22T10:06:19.841Z,88.71
2017-12-22T10:07:29.961Z,88.52
2017-12-22T10:08:40.118Z,88.71
2017-12-22T10:09:49.970Z,88.71
2017-12-22T10:11:00.208Z,88.52
2017-12-22T10:12:10.095Z,88.8
2017-12-22T10:13:20.042Z,88.13
2017-12-22T10:14:30.269Z,88.8
2017-12-22T10:15:40.480Z,88.61
2017-12-22T10:16:50.720Z,88.13
2017-12-22T10:18:00.346Z,88.13
2017-12-22T10:19:10.451Z,88.33
2017-12-22T10:20:20.197Z,88.13
2017-12-22T10:21:30.330Z,88.04
2017-12-22T10:22:40.453Z,88.23
2017-12-22T10:23:50.737Z,88.04
2017-12-22T10:25:00.955Z,88.13
2017-12-22T10:26:11.205Z,87.85
2017-12-22T10:27:21.383Z,88.04
2017-12-22T10:28:31.234Z,87.9
2017-12-22T10:29:41.000Z,88.13
2017-12-22T10:30:51.168Z,87.76
2017-12-22T10:32:01.012Z,87.66
2017-12-22T10:33:11.180Z,87.95
2017-12-22T10:34:21.299Z,87.81
2017-12-22T10:35:31.415Z,88
2017-12-22T10:36:41.687Z,88.04
2017-12-22T10:37:51.540Z,87.81
2017-12-22T10:39:01.310Z,88.09
2017-12-22T10:40:11.448Z,88.13
2017-12-22T10:41:21.563Z,88.13
2017-12-22T10:42:31.786Z,88.28
2017-12-22T10:43:41.669Z,88.19
2017-12-22T10:44:51.791Z,88.19
2017-12-22T10:46:01.668Z,88.42
2017-12-22T10:47:11.829Z,87.95
2017-12-22T10:48:21.984Z,88.19
2017-12-22T10:49:31.752Z,88.28
2017-12-22T10:50:41.881Z,88.38
2017-12-22T10:51:51.731Z,88.38
2017-12-22T10:53:01.866Z,88.47
2017-12-22T10:54:12.027Z,88.28
2017-12-22T10:55:22.329Z,88.47
2017-12-22T10:56:32.490Z,88
2017-12-22T10:57:43.564Z,88.47
2017-12-22T10:58:53.429Z,88.28
2017-12-22T11:00:03.042Z,88.47
2017-12-22T11:01:13.296Z,88.95
2017-12-22T11:02:23.222Z,87.9
2017-12-22T11:03:33.048Z,88.28
2017-12-22T11:04:42.890Z,88.13
2017-12-22T11:05:52.506Z,88.04
2017-12-22T11:07:02.395Z,88.04
2017-12-22T11:08:12.529Z,87.95
2017-12-22T11:09:22.639Z,88.38
2017-12-22T11:10:32.782Z,88.42
2017-12-22T11:11:42.916Z,88.42
2017-12-22T11:12:53.192Z,88.52
2017-12-22T11:14:03.039Z,88.19
2017-12-22T11:15:13.152Z,88.23
2017-12-22T11:16:23.265Z,88.13
2017-12-22T11:17:33.126Z,88.19
2017-12-22T11:18:44.233Z,88
2017-12-22T11:19:54.111Z,88.33
2017-12-22T11:21:04.288Z,87.9
2017-12-22T11:22:14.468Z,88.28
2017-12-22T11:23:24.686Z,87.85
2017-12-22T11:24:34.892Z,88.42
2017-12-22T11:25:45.015Z,88.42
2017-12-22T11:26:55.139Z,88.13
2017-12-22T11:28:05.060Z,88.47
2017-12-22T11:29:15.429Z,88.47
2017-12-22T11:30:25.551Z,88.52
2017-12-22T11:31:35.673Z,88.47
2017-12-22T11:32:46.061Z,87.85
2017-12-22T11:33:55.932Z,88.13
2017-12-22T11:35:05.708Z,88.33
2017-12-22T11:36:15.483Z,87.95
2017-12-22T11:37:25.587Z,87.85
2017-12-22T11:38:35.463Z,88.13
2017-12-22T11:39:45.603Z,88.33
2017-12-22T11:40:55.776Z,88.13
2017-12-22T11:42:05.755Z,88.04
2017-12-22T11:43:15.725Z,88.42
2017-12-22T11:44:25.843Z,87.66
2017-12-22T11:45:35.975Z,87.76
2017-12-22T11:46:46.130Z,87.76
2017-12-22T11:47:56.341Z,88.33
2017-12-22T11:49:06.499Z,88.61
2017-12-22T11:50:16.683Z,88.04
2017-12-22T11:51:26.845Z,87.95
2017-12-22T11:52:36.958Z,88.47
2017-12-22T11:53:47.077Z,87.62
2017-12-22T11:54:57.038Z,88.38
2017-12-22T11:56:06.920Z,88.19
2017-12-22T11:57:17.033Z,87.71
2017-12-22T11:58:27.047Z,87.81
2017-12-22T11:59:37.254Z,88.28
2017-12-22T12:00:47.494Z,88.19
2017-12-22T12:01:57.387Z,87.9
2017-12-22T12:03:07.501Z,88.42
2017-12-22T12:04:17.371Z,88.19
2017-12-22T12:05:27.494Z,88.19
2017-12-22T12:06:37.651Z,87.9
2017-12-22T12:07:47.779Z,88.09
2017-12-22T12:08:57.994Z,88.19
2017-12-22T12:10:08.158Z,87.71
2017-12-22T12:11:18.370Z,88.04
2017-12-22T12:12:28.585Z,88
2017-12-22T12:13:38.752Z,88.33
2017-12-22T12:14:48.640Z,88.09
2017-12-22T12:15:58.815Z,88.09
2017-12-22T12:17:08.657Z,88.19
2017-12-22T12:18:18.563Z,88.42
2017-12-22T12:19:28.315Z,88.23
2017-12-22T12:20:38.497Z,88.09
2017-12-22T12:21:48.665Z,88.09
2017-12-22T12:22:59.803Z,88.19
2017-12-22T12:24:09.659Z,88.38
2017-12-22T12:25:19.786Z,88.38
2017-12-22T12:26:29.899Z,88.33
2017-12-22T12:27:40.093Z,88.42
2017-12-22T12:28:50.287Z,88.42
2017-12-22T12:30:00.524Z,88.23
2017-12-22T12:31:10.334Z,88.33
2017-12-22T12:32:20.501Z,87.95
2017-12-22T12:33:30.654Z,88.04
2017-12-22T12:34:40.794Z,87.66
2017-12-22T12:35:50.705Z,87.85
2017-12-22T12:37:00.855Z,87.85
2017-12-22T12:38:11.041Z,87.95
2017-12-22T12:39:20.673Z,87.76
2017-12-22T12:40:30.806Z,87.28
2017-12-22T12:41:40.932Z,87.76
2017-12-22T12:42:51.104Z,87.66
2017-12-22T12:44:01.250Z,87.85
2017-12-22T12:45:11.394Z,87.76
2017-12-22T12:46:21.544Z,87.85
2017-12-22T12:47:31.884Z,87.66
2017-12-22T12:48:42.157Z,88.13
2017-12-22T12:49:52.342Z,87.95
2017-12-22T12:51:02.164Z,87.85
2017-12-22T12:52:12.290Z,87.85
2017-12-22T12:53:22.176Z,88.04
2017-12-22T12:54:32.290Z,87.76
2017-12-22T12:55:42.173Z,87.85
2017-12-22T12:56:52.290Z,87.66
2017-12-22T12:58:02.560Z,87.95
2017-12-22T12:59:12.744Z,87.66
2017-12-22T13:00:22.938Z,87.38
2017-12-22T13:01:33.180Z,87.76
2017-12-22T13:02:43.398Z,87.76
2017-12-22T13:03:53.603Z,87.66
2017-12-22T13:05:03.781Z,87.85
2017-12-22T13:06:13.914Z,87.76
2017-12-22T13:07:24.207Z,87.95
2017-12-22T13:08:34.375Z,87.66
2017-12-22T13:09:44.581Z,87.95
2017-12-22T13:10:54.871Z,87.66
2017-12-22T13:12:05.754Z,87.66
2017-12-22T13:13:15.960Z,87.85
2017-12-22T13:14:26.086Z,87.76
2017-12-22T13:15:36.245Z,87.66
2017-12-22T13:16:46.441Z,87.85
2017-12-22T13:17:56.699Z,87.66
2017-12-22T13:19:06.958Z,87.57
2017-12-22T13:20:16.822Z,87.85
2017-12-22T13:21:26.737Z,87.95
2017-12-22T13:22:36.645Z,88.13
2017-12-22T13:23:46.506Z,87.85
2017-12-22T13:24:57.630Z,88.04
2017-12-22T13:26:07.843Z,87.76
2017-12-22T13:27:17.972Z,87.66
2017-12-22T13:28:28.220Z,87.95
2017-12-22T13:29:38.081Z,88.13
2017-12-22T13:30:48.271Z,87.76
2017-12-22T13:31:58.444Z,87.85
2017-12-22T13:33:08.210Z,87.76
2017-12-22T13:34:18.366Z,88.33
2017-12-22T13:35:28.314Z,87.85
2017-12-22T13:36:38.440Z,88.13
2017-12-22T13:37:48.558Z,88.42
2017-12-22T13:38:58.710Z,88.33
2017-12-22T13:40:08.557Z,88.13
2017-12-22T13:41:18.475Z,88.13
2017-12-22T13:42:28.588Z,88.42
2017-12-22T13:43:38.675Z,88.23
2017-12-22T13:44:49.762Z,88.33
2017-12-22T13:46:00.148Z,88.04
2017-12-22T13:47:10.316Z,88.47
2017-12-22T13:48:20.129Z,88.95
2017-12-22T13:49:30.313Z,89.33
2017-12-22T13:50:40.448Z,89.14
2017-12-22T13:51:50.622Z,88.76
2017-12-22T13:53:00.505Z,88.95
2017-12-22T13:54:10.687Z,89.04
2017-12-22T13:55:21.777Z,88.85
2017-12-22T13:56:31.289Z,88.76
2017-12-22T13:57:41.427Z,88.57
2017-12-22T13:58:51.177Z,88.95
2017-12-22T14:00:01.341Z,89.23
2017-12-22T14:01:11.493Z,89.04
2017-12-22T14:02:21.506Z,89.04
2017-12-22T14:03:31.377Z,89.23
2017-12-22T14:04:41.508Z,89.23
2017-12-22T14:05:51.622Z,89.23
2017-12-22T14:07:01.731Z,89.04
2017-12-22T14:08:11.602Z,89.33
2017-12-22T14:09:21.714Z,89.33
2017-12-22T14:10:31.851Z,89.42
2017-12-22T14:11:41.696Z,89.23
2017-12-22T14:12:51.741Z,89.9
2017-12-22T14:14:02.059Z,89.8
2017-12-22T14:15:12.298Z,89.61
2017-12-22T14:16:21.906Z,89.52
2017-12-22T14:17:32.071Z,89.71
2017-12-22T14:18:42.178Z,90.19
2017-12-22T14:19:52.288Z,89.52
2017-12-22T14:21:02.402Z,90
2017-12-22T14:22:12.596Z,89.8
2017-12-22T14:23:22.731Z,89.71
2017-12-22T14:24:32.917Z,89.8
2017-12-22T14:25:43.056Z,90
2017-12-22T14:26:53.200Z,90.09
2017-12-22T14:28:03.151Z,90.09
2017-12-22T14:29:13.054Z,89.67
2017-12-22T14:30:23.169Z,90.37
2017-12-22T14:31:33.300Z,90.14
2017-12-22T14:32:43.456Z,90.42
2017-12-22T14:33:53.600Z,90.61
2017-12-22T14:35:03.717Z,90.14
2017-12-22T14:36:13.564Z,90.61
2017-12-22T14:37:23.592Z,90.42
2017-12-22T14:38:33.782Z,90.61
2017-12-22T14:39:43.974Z,90.61
2017-12-22T14:40:54.125Z,90.61
2017-12-22T14:42:03.998Z,90.61
2017-12-22T14:43:14.104Z,90.61
2017-12-22T14:44:24.512Z,90.71
2017-12-22T14:45:34.643Z,90.33
2017-12-22T14:46:44.786Z,90.42
2017-12-22T14:47:55.075Z,90.61
2017-12-22T14:49:05.283Z,90.61
2017-12-22T14:50:15.127Z,91.19
2017-12-22T14:51:25.356Z,90.52
2017-12-22T14:52:35.257Z,90.61
2017-12-22T14:53:45.370Z,90.61
2017-12-22T14:54:55.262Z,90.52
2017-12-22T14:56:05.127Z,90.42
2017-12-22T14:57:15.081Z,90.52
2017-12-22T14:58:25.209Z,90.23
2017-12-22T14:59:35.352Z,90.42
2017-12-22T15:00:45.584Z,90.61
2017-12-22T15:01:55.732Z,90.52
2017-12-22T15:03:05.869Z,90.52
2017-12-22T15:04:16.016Z,90.61
2017-12-22T15:05:26.136Z,90.42
2017-12-22T15:06:35.983Z,90.61
2017-12-22T15:07:45.844Z,90.33